Weather at Peterborough Airport

Public forecast

Using degrees Celsius for public forecast. Weather courtesy of forecast.io.

Current aviation weather report (METAR) for Peterborough Airport

Retrieved 2020/12/04 04:00 UTC (50 minutes ago):

CYPQ 040400Z AUTO 21007KT 9SM -RA SCT039 BKN060 OVC072 03/M00 A2986 RMK SLP123

Aviation forecast (TAF) for Peterborough Airport

Forecast is more than 6 hours old.

Retrieved 2020/12/03 20:00 UTC (9 hours ago):

TAF CYPQ 031938Z 0320/0403 22008KT P6SM OVC025 TEMPO 0320/0403 22010G20KT OVC020 RMK FCST BASED ON AUTO OBS NXT FCST WILL BE ISSUED AT 041045Z